createdAt,value
2017-08-07T00:00:50.762Z,1004.0
2017-08-07T00:01:52.286Z,1004.0
2017-08-07T00:02:53.786Z,1004.0
2017-08-07T00:03:55.317Z,1004.1
2017-08-07T00:04:56.916Z,1004.1
2017-08-07T00:05:58.469Z,1004.0
2017-08-07T00:07:00.026Z,1004.0
2017-08-07T00:08:01.585Z,1004.1
2017-08-07T00:09:03.052Z,1004.1
2017-08-07T00:10:04.632Z,1004.1
2017-08-07T00:11:06.160Z,1004.1
2017-08-07T00:12:07.739Z,1004.1
2017-08-07T00:13:09.232Z,1004.1
2017-08-07T00:14:10.793Z,1004.1
2017-08-07T00:15:12.305Z,1004.1
2017-08-07T00:16:13.837Z,1004.1
2017-08-07T00:17:15.373Z,1004.0
2017-08-07T00:18:16.926Z,1004.0
2017-08-07T00:19:18.423Z,1004.0
2017-08-07T00:20:19.988Z,1004.0
2017-08-07T00:21:21.578Z,1004.0
2017-08-07T00:22:23.077Z,1004.0
2017-08-07T00:23:24.648Z,1004.0
2017-08-07T00:24:26.171Z,1004.1
2017-08-07T00:25:27.715Z,1004.0
2017-08-07T00:26:29.275Z,1004.1
2017-08-07T00:27:30.876Z,1004.1
2017-08-07T00:28:32.502Z,1004.1
2017-08-07T00:29:34.031Z,1004.0
2017-08-07T00:30:35.586Z,1004.0
2017-08-07T00:31:37.102Z,1004.1
2017-08-07T00:32:38.606Z,1004.1
2017-08-07T00:33:40.170Z,1004.0
2017-08-07T00:34:41.683Z,1004.0
2017-08-07T00:35:43.229Z,1004.0
2017-08-07T00:36:44.744Z,1004.0
2017-08-07T00:37:46.201Z,1004.0
2017-08-07T00:38:47.804Z,1004.0
2017-08-07T00:39:49.340Z,1004.0
2017-08-07T00:40:50.851Z,1004.0
2017-08-07T00:41:52.320Z,1004.0
2017-08-07T00:42:53.837Z,1004.0
2017-08-07T00:43:55.330Z,1004.0
2017-08-07T00:44:56.867Z,1004.0
2017-08-07T00:45:58.391Z,1004.0
2017-08-07T00:46:59.946Z,1004.0
2017-08-07T00:48:01.365Z,1004.0
2017-08-07T00:49:02.779Z,1003.9
2017-08-07T00:50:04.196Z,1004.0
2017-08-07T00:51:05.601Z,1004.0
2017-08-07T00:52:07.030Z,1004.0
2017-08-07T00:53:08.441Z,1004.0
2017-08-07T00:54:09.864Z,1004.0
2017-08-07T00:55:11.420Z,1004.0
2017-08-07T00:56:12.985Z,1004.0
2017-08-07T00:57:14.479Z,1004.0
2017-08-07T00:58:15.988Z,1004.0
2017-08-07T00:59:17.543Z,1004.0
2017-08-07T01:00:19.049Z,1004.1
2017-08-07T01:01:20.604Z,1004.0
2017-08-07T01:02:22.130Z,1004.0
2017-08-07T01:03:23.620Z,1004.1
2017-08-07T01:04:25.205Z,1004.0
2017-08-07T01:05:26.729Z,1004.0
2017-08-07T01:06:28.257Z,1004.0
2017-08-07T01:07:29.767Z,1004.0
2017-08-07T01:08:31.308Z,1004.0
2017-08-07T01:09:32.807Z,1004.0
2017-08-07T01:10:34.380Z,1004.0
2017-08-07T01:11:35.864Z,1004.0
2017-08-07T01:12:37.357Z,1004.0
2017-08-07T01:13:38.839Z,1004.0
2017-08-07T01:14:40.289Z,1004.0
2017-08-07T01:15:41.853Z,1003.9
2017-08-07T01:16:43.356Z,1003.9
2017-08-07T01:17:44.878Z,1003.9
2017-08-07T01:18:46.366Z,1004.0
2017-08-07T01:19:47.885Z,1004.0
2017-08-07T01:20:49.442Z,1003.9
2017-08-07T01:21:50.947Z,1004.0
2017-08-07T01:22:52.432Z,1004.0
2017-08-07T01:23:54.003Z,1003.9
2017-08-07T01:24:55.465Z,1003.9
2017-08-07T01:25:56.996Z,1004.0
2017-08-07T01:26:58.549Z,1003.9
2017-08-07T01:28:00.124Z,1003.9
2017-08-07T01:29:01.604Z,1003.9
2017-08-07T01:30:03.233Z,1004.0
2017-08-07T01:31:04.717Z,1004.0
2017-08-07T01:32:06.208Z,1003.9
2017-08-07T01:33:07.711Z,1004.0
2017-08-07T01:34:09.128Z,1004.0
2017-08-07T01:35:10.548Z,1004.0
2017-08-07T01:36:11.990Z,1004.0
2017-08-07T01:37:13.388Z,1004.0
2017-08-07T01:38:14.796Z,1004.0
2017-08-07T01:39:16.255Z,1003.9
2017-08-07T01:40:17.806Z,1003.9
2017-08-07T01:41:19.307Z,1003.9
2017-08-07T01:42:20.803Z,1003.9
2017-08-07T01:43:22.314Z,1003.9
2017-08-07T01:44:23.777Z,1003.9
2017-08-07T01:45:25.315Z,1003.9
2017-08-07T01:46:26.886Z,1003.9
2017-08-07T01:47:28.417Z,1003.9
2017-08-07T01:48:29.928Z,1003.9
2017-08-07T01:49:31.387Z,1003.8
2017-08-07T01:50:32.805Z,1003.8
2017-08-07T01:51:34.325Z,1003.9
2017-08-07T01:52:35.851Z,1003.8
2017-08-07T01:53:37.365Z,1003.8
2017-08-07T01:54:38.865Z,1003.9
2017-08-07T01:55:40.350Z,1003.8
2017-08-07T01:56:41.858Z,1003.8
2017-08-07T01:57:43.349Z,1003.9
2017-08-07T01:58:44.878Z,1003.9
2017-08-07T01:59:46.384Z,1003.8
2017-08-07T02:00:47.891Z,1003.8
2017-08-07T02:01:49.436Z,1003.8
2017-08-07T02:02:50.906Z,1003.8
2017-08-07T02:03:52.380Z,1003.8
2017-08-07T02:04:53.805Z,1003.8
2017-08-07T02:05:55.275Z,1003.8
2017-08-07T02:06:56.741Z,1003.8
2017-08-07T02:07:58.252Z,1003.9
2017-08-07T02:08:59.728Z,1003.9
2017-08-07T02:10:01.232Z,1003.8
2017-08-07T02:11:02.722Z,1003.8
2017-08-07T02:12:04.231Z,1003.8
2017-08-07T02:13:05.726Z,1003.9
2017-08-07T02:14:07.251Z,1003.9
2017-08-07T02:15:08.748Z,1003.9
2017-08-07T02:16:10.274Z,1003.9
2017-08-07T02:17:11.761Z,1003.9
2017-08-07T02:18:13.266Z,1003.9
2017-08-07T02:19:14.800Z,1003.9
2017-08-07T02:20:16.257Z,1003.9
2017-08-07T02:21:17.793Z,1003.9
2017-08-07T02:22:19.325Z,1003.9
2017-08-07T02:23:20.796Z,1003.9
2017-08-07T02:24:22.328Z,1003.9
2017-08-07T02:25:23.837Z,1003.9
2017-08-07T02:26:25.350Z,1003.9
2017-08-07T02:27:26.851Z,1003.9
2017-08-07T02:28:28.349Z,1003.9
2017-08-07T02:29:29.849Z,1003.8
2017-08-07T02:30:31.368Z,1003.8
2017-08-07T02:31:32.791Z,1003.9
2017-08-07T02:32:34.208Z,1003.8
2017-08-07T02:33:35.707Z,1003.8
2017-08-07T02:34:37.210Z,1003.8
2017-08-07T02:35:38.749Z,1003.8
2017-08-07T02:36:40.274Z,1003.8
2017-08-07T02:37:41.757Z,1003.8
2017-08-07T02:38:43.266Z,1003.8
2017-08-07T02:39:44.755Z,1003.8
2017-08-07T02:40:46.249Z,1003.8
2017-08-07T02:41:47.795Z,1003.8
2017-08-07T02:42:49.277Z,1003.8
2017-08-07T02:43:50.741Z,1003.8
2017-08-07T02:44:52.237Z,1003.8
2017-08-07T02:45:53.758Z,1003.8
2017-08-07T02:46:55.270Z,1003.8
2017-08-07T02:47:56.815Z,1003.8
2017-08-07T02:48:58.284Z,1003.8
2017-08-07T02:49:59.756Z,1003.8
2017-08-07T02:51:01.205Z,1003.8
2017-08-07T02:52:02.702Z,1003.8
2017-08-07T02:53:04.187Z,1003.8
2017-08-07T02:54:05.663Z,1003.8
2017-08-07T02:55:07.160Z,1003.8
2017-08-07T02:56:08.641Z,1003.7
2017-08-07T02:57:10.147Z,1003.8
2017-08-07T02:58:11.606Z,1003.8
2017-08-07T02:59:13.155Z,1003.7
2017-08-07T03:00:14.622Z,1003.7
2017-08-07T03:01:16.123Z,1003.7
2017-08-07T03:02:17.684Z,1003.7
2017-08-07T03:03:19.209Z,1003.7
2017-08-07T03:04:20.715Z,1003.7
2017-08-07T03:05:22.228Z,1003.7
2017-08-07T03:06:23.767Z,1003.7
2017-08-07T03:07:25.263Z,1003.7
2017-08-07T03:08:26.760Z,1003.7
2017-08-07T03:09:28.273Z,1003.7
2017-08-07T03:10:29.796Z,1003.6
2017-08-07T03:11:31.318Z,1003.6
2017-08-07T03:12:32.847Z,1003.7
2017-08-07T03:13:34.344Z,1003.7
2017-08-07T03:14:35.863Z,1003.6
2017-08-07T03:15:37.487Z,1003.7
2017-08-07T03:16:39.028Z,1003.6
2017-08-07T03:17:40.532Z,1003.6
2017-08-07T03:18:42.050Z,1003.6
2017-08-07T03:19:43.587Z,1003.6
2017-08-07T03:20:45.116Z,1003.7
2017-08-07T03:21:46.696Z,1003.7
2017-08-07T03:22:48.203Z,1003.7
2017-08-07T03:23:49.714Z,1003.7
2017-08-07T03:24:51.247Z,1003.7
2017-08-07T03:25:52.764Z,1003.7
2017-08-07T03:26:54.292Z,1003.7
2017-08-07T03:27:55.863Z,1003.6
2017-08-07T03:28:57.412Z,1003.6
2017-08-07T03:29:58.927Z,1003.6
2017-08-07T03:31:00.507Z,1003.6
2017-08-07T03:32:02.026Z,1003.6
2017-08-07T03:33:03.549Z,1003.6
2017-08-07T03:34:05.103Z,1003.6
2017-08-07T03:35:06.624Z,1003.6
2017-08-07T03:36:08.180Z,1003.6
2017-08-07T03:37:09.698Z,1003.6
2017-08-07T03:38:11.211Z,1003.6
2017-08-07T03:39:12.737Z,1003.6
2017-08-07T03:40:14.273Z,1003.6
2017-08-07T03:41:15.819Z,1003.6
2017-08-07T03:42:17.342Z,1003.7
2017-08-07T03:43:18.842Z,1003.6
2017-08-07T03:44:20.351Z,1003.6
2017-08-07T03:45:21.919Z,1003.6
2017-08-07T03:46:23.495Z,1003.6
2017-08-07T03:47:24.999Z,1003.6
2017-08-07T03:48:26.536Z,1003.6
2017-08-07T03:49:28.048Z,1003.6
2017-08-07T03:50:29.612Z,1003.6
2017-08-07T03:51:31.097Z,1003.6
2017-08-07T03:52:32.612Z,1003.6
2017-08-07T03:53:34.175Z,1003.6
2017-08-07T03:54:35.756Z,1003.6
2017-08-07T03:55:37.306Z,1003.6
2017-08-07T03:56:38.797Z,1003.5
2017-08-07T03:57:40.336Z,1003.5
2017-08-07T03:58:41.901Z,1003.5
2017-08-07T03:59:43.426Z,1003.5
2017-08-07T04:00:44.953Z,1003.5
2017-08-07T04:01:46.450Z,1003.5
2017-08-07T04:02:47.961Z,1003.5
2017-08-07T04:03:49.468Z,1003.4
2017-08-07T04:04:50.977Z,1003.4
2017-08-07T04:05:52.480Z,1003.5
2017-08-07T04:06:53.994Z,1003.4
2017-08-07T04:07:55.483Z,1003.4
2017-08-07T04:08:57.031Z,1003.4
2017-08-07T04:09:58.564Z,1003.4
2017-08-07T04:11:00.144Z,1003.4
2017-08-07T04:12:01.696Z,1003.4
2017-08-07T04:13:03.270Z,1003.4
2017-08-07T04:14:04.757Z,1003.4
2017-08-07T04:15:06.256Z,1003.4
2017-08-07T04:16:07.734Z,1003.4
2017-08-07T04:17:09.261Z,1003.4
2017-08-07T04:18:10.788Z,1003.3
2017-08-07T04:19:12.276Z,1003.4
2017-08-07T04:20:13.845Z,1003.3
2017-08-07T04:21:15.346Z,1003.4
2017-08-07T04:22:16.904Z,1003.3
2017-08-07T04:23:18.459Z,1003.3
2017-08-07T04:24:19.975Z,1003.3
2017-08-07T04:25:21.461Z,1003.3
2017-08-07T04:26:23.045Z,1003.3
2017-08-07T04:27:24.566Z,1003.3
2017-08-07T04:28:26.110Z,1003.3
2017-08-07T04:29:27.645Z,1003.3
2017-08-07T04:30:29.166Z,1003.3
2017-08-07T04:31:30.687Z,1003.3
2017-08-07T04:32:32.257Z,1003.3
2017-08-07T04:33:33.788Z,1003.3
2017-08-07T04:34:35.299Z,1003.3
2017-08-07T04:35:36.838Z,1003.3
2017-08-07T04:36:38.328Z,1003.3
2017-08-07T04:37:39.868Z,1003.3
2017-08-07T04:38:41.380Z,1003.3
2017-08-07T04:39:42.983Z,1003.3
2017-08-07T04:40:44.509Z,1003.3
2017-08-07T04:41:46.108Z,1003.3
2017-08-07T04:42:47.665Z,1003.3
2017-08-07T04:43:49.117Z,1003.3
2017-08-07T04:44:50.601Z,1003.3
2017-08-07T04:45:52.138Z,1003.3
2017-08-07T04:46:53.664Z,1003.3
2017-08-07T04:47:55.312Z,1003.3
2017-08-07T04:48:56.832Z,1003.3
2017-08-07T04:49:58.340Z,1003.3
2017-08-07T04:50:59.945Z,1003.3
2017-08-07T04:52:01.493Z,1003.3
2017-08-07T04:53:03.080Z,1003.3
2017-08-07T04:54:04.631Z,1003.3
2017-08-07T04:55:06.148Z,1003.3
2017-08-07T04:56:07.642Z,1003.3
2017-08-07T04:57:09.229Z,1003.3
2017-08-07T04:58:10.724Z,1003.3
2017-08-07T04:59:12.281Z,1003.3
2017-08-07T05:00:13.824Z,1003.3
2017-08-07T05:01:15.420Z,1003.2
2017-08-07T05:02:16.992Z,1003.2
2017-08-07T05:03:18.546Z,1003.3
2017-08-07T05:04:20.113Z,1003.2
2017-08-07T05:05:21.653Z,1003.2
2017-08-07T05:06:23.221Z,1003.2
2017-08-07T05:07:24.887Z,1003.2
2017-08-07T05:08:26.422Z,1003.2
2017-08-07T05:09:27.952Z,1003.2
2017-08-07T05:10:29.475Z,1003.2
2017-08-07T05:11:30.962Z,1003.2
2017-08-07T05:12:32.505Z,1003.2
2017-08-07T05:13:34.055Z,1003.2
2017-08-07T05:14:35.530Z,1003.2
2017-08-07T05:15:37.076Z,1003.2
2017-08-07T05:16:38.636Z,1003.2
2017-08-07T05:17:40.270Z,1003.2
2017-08-07T05:18:41.805Z,1003.2
2017-08-07T05:19:43.681Z,1003.2
2017-08-07T05:20:45.489Z,1003.2
2017-08-07T05:21:47.025Z,1003.2
2017-08-07T05:22:48.545Z,1003.2
2017-08-07T05:23:50.139Z,1003.2
2017-08-07T05:24:51.638Z,1003.2
2017-08-07T05:25:53.203Z,1003.2
2017-08-07T05:26:54.700Z,1003.2
2017-08-07T05:27:56.260Z,1003.2
2017-08-07T05:28:57.745Z,1003.2
2017-08-07T05:29:59.467Z,1003.2
2017-08-07T05:31:00.908Z,1003.2
2017-08-07T05:32:02.495Z,1003.2
2017-08-07T05:33:04.119Z,1003.2
2017-08-07T05:34:05.631Z,1003.2
2017-08-07T05:35:07.100Z,1003.2
2017-08-07T05:36:08.670Z,1003.2
2017-08-07T05:37:11.055Z,1003.2
2017-08-07T05:38:13.083Z,1003.2
2017-08-07T05:39:14.611Z,1003.2
2017-08-07T05:40:16.128Z,1003.2
2017-08-07T05:41:17.693Z,1003.2
2017-08-07T05:42:19.243Z,1003.2
2017-08-07T05:43:20.774Z,1003.3
2017-08-07T05:44:22.285Z,1003.3
2017-08-07T05:45:23.868Z,1003.3
2017-08-07T05:46:25.438Z,1003.2
2017-08-07T05:47:27.237Z,1003.2
2017-08-07T05:48:29.283Z,1003.2
2017-08-07T05:49:30.874Z,1003.2
2017-08-07T05:50:32.387Z,1003.2
2017-08-07T05:51:33.979Z,1003.2
2017-08-07T05:52:35.711Z,1003.2
2017-08-07T05:53:37.229Z,1003.2
2017-08-07T05:54:38.750Z,1003.2
2017-08-07T05:55:40.229Z,1003.2
2017-08-07T05:56:41.787Z,1003.2
2017-08-07T05:57:43.318Z,1003.2
2017-08-07T05:58:44.858Z,1003.2
2017-08-07T05:59:46.437Z,1003.2
2017-08-07T06:00:47.972Z,1003.2
2017-08-07T06:01:49.474Z,1003.2
2017-08-07T06:02:50.976Z,1003.2
2017-08-07T06:03:52.571Z,1003.2
2017-08-07T06:04:54.155Z,1003.2
2017-08-07T06:05:55.883Z,1003.2
2017-08-07T06:06:57.451Z,1003.2
2017-08-07T06:07:59.020Z,1003.2
2017-08-07T06:09:00.602Z,1003.2
2017-08-07T06:10:02.197Z,1003.2
2017-08-07T06:11:03.739Z,1003.2
2017-08-07T06:12:05.347Z,1003.2
2017-08-07T06:13:07.145Z,1003.2
2017-08-07T06:14:08.725Z,1003.2
2017-08-07T06:15:10.328Z,1003.3
2017-08-07T06:16:11.876Z,1003.2
2017-08-07T06:17:13.413Z,1003.2
2017-08-07T06:18:15.380Z,1003.2
2017-08-07T06:19:16.997Z,1003.2
2017-08-07T06:20:18.493Z,1003.2
2017-08-07T06:21:20.102Z,1003.2
2017-08-07T06:22:21.625Z,1003.2
2017-08-07T06:23:24.060Z,1003.2
2017-08-07T06:24:25.640Z,1003.2
2017-08-07T06:25:27.185Z,1003.2
2017-08-07T06:26:28.727Z,1003.2
2017-08-07T06:27:30.283Z,1003.2
2017-08-07T06:28:31.743Z,1003.2
2017-08-07T06:29:33.258Z,1003.1
2017-08-07T06:30:34.967Z,1003.1
2017-08-07T06:31:36.740Z,1003.1
2017-08-07T06:32:38.335Z,1003.1
2017-08-07T06:33:39.837Z,1003.1
2017-08-07T06:34:41.368Z,1003.1
2017-08-07T06:35:42.917Z,1003.1
2017-08-07T06:36:44.572Z,1003.2
2017-08-07T06:37:46.168Z,1003.1
2017-08-07T06:38:47.833Z,1003.1
2017-08-07T06:39:49.603Z,1003.1
2017-08-07T06:40:51.343Z,1003.1
2017-08-07T06:41:53.097Z,1003.1
2017-08-07T06:42:54.974Z,1003.1
2017-08-07T06:43:56.891Z,1003.1
2017-08-07T06:44:58.529Z,1003.1
2017-08-07T06:46:00.348Z,1003.1
2017-08-07T06:47:01.997Z,1003.1
2017-08-07T06:48:03.756Z,1003.0
2017-08-07T06:49:05.449Z,1003.1
2017-08-07T06:50:07.331Z,1003.1
2017-08-07T06:51:09.111Z,1003.0
2017-08-07T06:52:10.773Z,1003.0
2017-08-07T06:53:12.400Z,1003.1
2017-08-07T06:54:14.116Z,1003.1
2017-08-07T06:55:15.813Z,1003.0
2017-08-07T06:56:17.642Z,1003.0
2017-08-07T06:57:19.325Z,1003.0
2017-08-07T06:58:21.011Z,1003.1
2017-08-07T06:59:22.694Z,1003.1
2017-08-07T07:00:24.428Z,1003.1
2017-08-07T07:01:26.217Z,1003.1
2017-08-07T07:02:27.940Z,1003.0
2017-08-07T07:03:29.697Z,1003.1
2017-08-07T07:04:31.347Z,1003.1
2017-08-07T07:05:33.060Z,1003.1
2017-08-07T07:06:34.733Z,1003.1
2017-08-07T07:07:36.500Z,1003.1
2017-08-07T07:08:38.190Z,1003.1
2017-08-07T07:09:39.893Z,1003.1
2017-08-07T07:10:41.628Z,1003.0
2017-08-07T07:11:43.352Z,1003.0
2017-08-07T07:12:44.980Z,1003.0
2017-08-07T07:13:46.948Z,1003.0
2017-08-07T07:14:48.517Z,1003.0
2017-08-07T07:15:50.113Z,1003.0
2017-08-07T07:16:51.935Z,1003.0
2017-08-07T07:17:53.793Z,1003.0
2017-08-07T07:18:55.524Z,1003.0
2017-08-07T07:19:57.249Z,1003.0
2017-08-07T07:20:58.959Z,1002.9
2017-08-07T07:22:00.744Z,1002.9
2017-08-07T07:23:02.305Z,1002.9
2017-08-07T07:24:04.041Z,1002.9
2017-08-07T07:25:05.661Z,1003.0
2017-08-07T07:26:07.248Z,1002.9
2017-08-07T07:27:08.947Z,1002.9
2017-08-07T07:28:10.741Z,1002.9
2017-08-07T07:29:12.716Z,1002.9
2017-08-07T07:30:14.599Z,1002.9
2017-08-07T07:31:16.555Z,1002.9
2017-08-07T07:32:18.708Z,1002.9
2017-08-07T07:33:20.327Z,1002.9
2017-08-07T07:34:22.217Z,1002.9
2017-08-07T07:35:23.968Z,1002.9
2017-08-07T07:36:25.923Z,1002.9
2017-08-07T07:37:27.568Z,1002.9
2017-08-07T07:38:29.747Z,1002.9
2017-08-07T07:39:31.645Z,1002.9
2017-08-07T07:40:33.470Z,1002.9
2017-08-07T07:41:35.217Z,1002.9
2017-08-07T07:42:37.138Z,1002.9
2017-08-07T07:43:39.027Z,1002.9
2017-08-07T07:44:40.949Z,1002.9
2017-08-07T07:45:42.777Z,1002.8
2017-08-07T07:46:44.562Z,1002.9
2017-08-07T07:47:46.243Z,1002.9
2017-08-07T07:48:48.038Z,1002.8
2017-08-07T07:49:49.867Z,1002.8
2017-08-07T10:52:58.845Z,1001.8
2017-08-07T10:54:00.329Z,1001.8
2017-08-07T10:55:01.801Z,1001.8
2017-08-07T10:56:03.238Z,1001.8
2017-08-07T10:57:04.723Z,1001.9
2017-08-07T10:58:06.203Z,1001.8
2017-08-07T10:59:07.745Z,1001.8
2017-08-07T11:00:09.396Z,1001.8
2017-08-07T11:01:10.953Z,1001.4
2017-08-07T11:02:12.609Z,1001.9
2017-08-07T11:03:14.784Z,1001.8
2017-08-07T11:04:16.687Z,1001.4
2017-08-07T11:05:18.660Z,1001.5
2017-08-07T11:06:20.723Z,1002.2
2017-08-07T11:07:22.497Z,1002.5
2017-08-07T11:08:24.283Z,1002.5
2017-08-07T11:09:26.017Z,1002.1
2017-08-07T11:10:27.561Z,1001.5
2017-08-07T11:11:29.174Z,1001.4
2017-08-07T11:12:30.793Z,1001.6
2017-08-07T11:13:32.420Z,1001.4
2017-08-07T11:14:34.045Z,1002.5
2017-08-07T11:15:35.813Z,1002.5
2017-08-07T11:16:37.474Z,1002.5
2017-08-07T11:17:39.495Z,1002.5
2017-08-07T11:18:41.315Z,1002.5
2017-08-07T11:19:43.052Z,1002.5
2017-08-07T11:20:45.013Z,1002.5
2017-08-07T11:21:47.099Z,1002.4
2017-08-07T11:22:49.063Z,1002.5
2017-08-07T11:23:50.836Z,1002.5
2017-08-07T11:24:52.664Z,1002.4
2017-08-07T11:25:54.414Z,1002.4
2017-08-07T11:26:56.079Z,1002.1
2017-08-07T11:27:58.012Z,1002.3
2017-08-07T11:28:59.841Z,1002.4
2017-08-07T11:30:01.458Z,1002.5
2017-08-07T11:31:03.266Z,1002.5
2017-08-07T11:32:05.021Z,1001.4
2017-08-07T11:33:06.819Z,1001.5
2017-08-07T11:34:08.709Z,1002.2
2017-08-07T11:35:10.777Z,1001.3
2017-08-07T11:36:12.475Z,1001.2
2017-08-07T11:37:14.105Z,1001.2
2017-08-07T11:38:16.027Z,1001.1
2017-08-07T11:39:17.642Z,1001.1
2017-08-07T11:40:19.705Z,1002.3
2017-08-07T11:41:21.498Z,1001.1
2017-08-07T11:42:23.234Z,1001.0
2017-08-07T11:43:25.281Z,1001.0
2017-08-07T11:44:27.211Z,1001.2
2017-08-07T11:45:29.148Z,1001.8
2017-08-07T11:46:31.133Z,1002.2
2017-08-07T11:47:33.428Z,1002.3
2017-08-07T11:48:35.220Z,1002.3
2017-08-07T11:49:37.450Z,1002.4
2017-08-07T11:50:39.420Z,1002.4
2017-08-07T11:51:41.047Z,1001.4
2017-08-07T11:52:42.714Z,1002.5
2017-08-07T11:53:44.539Z,1001.1
2017-08-07T11:54:46.341Z,1001.1
2017-08-07T11:55:48.048Z,1002.4
2017-08-07T11:56:53.812Z,1001.0
2017-08-07T11:57:56.734Z,1002.5
2017-08-07T11:58:59.439Z,1002.5
2017-08-07T12:00:03.477Z,1002.5
2017-08-07T12:01:06.386Z,1002.5
2017-08-07T12:02:08.821Z,1001.9
2017-08-07T12:03:10.720Z,1002.4
2017-08-07T12:04:12.505Z,1002.1
2017-08-07T12:05:14.527Z,1001.2
2017-08-07T12:06:16.323Z,1002.6
2017-08-07T12:07:18.269Z,1002.5
2017-08-07T12:08:20.048Z,1002.7
2017-08-07T12:09:21.966Z,1002.6
2017-08-07T12:10:23.997Z,1002.6
2017-08-07T12:11:26.053Z,1002.6
2017-08-07T12:12:27.870Z,1002.7
2017-08-07T12:13:29.742Z,1002.6
2017-08-07T12:14:31.647Z,1002.6
2017-08-07T12:15:33.582Z,1002.6
2017-08-07T12:16:35.342Z,1002.5
2017-08-07T12:17:37.236Z,1002.5
2017-08-07T12:18:39.281Z,1002.4
2017-08-07T12:19:40.956Z,1002.3
2017-08-07T12:20:42.656Z,1002.4
2017-08-07T12:21:44.733Z,1000.9
2017-08-07T12:22:46.821Z,1001.4
2017-08-07T12:23:48.878Z,1001.1
2017-08-07T12:24:50.537Z,1002.3
2017-08-07T12:25:52.537Z,1000.8
2017-08-07T12:26:54.546Z,1000.8
2017-08-07T12:27:56.403Z,1000.8
2017-08-07T12:28:58.167Z,1000.8
2017-08-07T12:30:00.100Z,1001.1
2017-08-07T12:31:01.949Z,1000.7
2017-08-07T12:32:03.963Z,1000.7
2017-08-07T12:33:06.166Z,1000.7
2017-08-07T12:34:07.963Z,1000.6
2017-08-07T12:35:10.260Z,1000.7
2017-08-07T12:36:12.196Z,1000.6
2017-08-07T12:37:13.959Z,1000.6
2017-08-07T12:38:15.581Z,1000.7
2017-08-07T12:39:17.360Z,1001.0
2017-08-07T12:40:19.164Z,1000.8
2017-08-07T12:41:20.817Z,1000.6
2017-08-07T12:42:22.458Z,1000.6
2017-08-07T12:43:24.335Z,1000.6
2017-08-07T12:44:26.116Z,1001.8
2017-08-07T12:45:27.890Z,1001.8
2017-08-07T12:46:29.643Z,1001.8
2017-08-07T12:47:31.390Z,1001.7
2017-08-07T12:48:33.064Z,1001.7
2017-08-07T12:49:34.636Z,1001.5
2017-08-07T12:50:36.301Z,1001.6
2017-08-07T12:51:37.883Z,1001.8
2017-08-07T12:52:39.503Z,1001.6
2017-08-07T12:53:41.221Z,1001.7
2017-08-07T12:54:42.818Z,1000.7
2017-08-07T12:55:44.469Z,1000.8
2017-08-07T12:56:46.087Z,1001.7
2017-08-07T12:57:48.078Z,1001.6
2017-08-07T12:58:49.949Z,1001.6
2017-08-07T12:59:52.180Z,1001.7
2017-08-07T13:00:53.828Z,1001.7
2017-08-07T13:01:56.259Z,1001.7
2017-08-07T13:02:57.988Z,1001.7
2017-08-07T13:03:59.949Z,1000.6
2017-08-07T13:05:01.613Z,1000.5
2017-08-07T13:06:03.427Z,1000.5
2017-08-07T13:07:05.114Z,1000.5
2017-08-07T13:08:06.643Z,1001.3
2017-08-07T13:09:08.415Z,1001.4
2017-08-07T13:10:10.053Z,1001.3
2017-08-07T13:11:11.566Z,1001.3
2017-08-07T13:12:13.170Z,1001.3
2017-08-07T13:13:14.730Z,1001.3
2017-08-07T13:14:16.377Z,1001.3
2017-08-07T13:15:18.058Z,1001.2
2017-08-07T13:16:19.718Z,1001.2
2017-08-07T13:17:21.380Z,1001.2
2017-08-07T13:18:22.985Z,1001.2
2017-08-07T13:19:24.668Z,1001.2
2017-08-07T13:20:26.381Z,1001.1
2017-08-07T13:21:28.029Z,1001.1
2017-08-07T13:22:30.120Z,1001.1
2017-08-07T13:23:32.366Z,1001.1
2017-08-07T13:24:34.351Z,1001.1
2017-08-07T13:25:36.694Z,1001.1
2017-08-07T13:26:38.637Z,1001.0
2017-08-07T13:27:40.894Z,1000.9
2017-08-07T13:28:43.137Z,1000.7
2017-08-07T13:29:45.179Z,1000.9
2017-08-07T13:30:47.535Z,1000.7
2017-08-07T13:31:49.492Z,1000.9
2017-08-07T13:32:51.493Z,1000.3
2017-08-07T13:33:53.130Z,1000.6
2017-08-07T13:34:55.188Z,1000.3
2017-08-07T13:35:57.616Z,1000.2
2017-08-07T13:36:59.926Z,1000.3
2017-08-07T13:38:02.299Z,1000.5
2017-08-07T13:39:04.605Z,1000.7
2017-08-07T13:40:07.022Z,1000.5
2017-08-07T13:41:08.748Z,1000.2
2017-08-07T13:42:11.076Z,1000.4
2017-08-07T13:43:13.693Z,1000.5
2017-08-07T13:44:15.827Z,1000.2
2017-08-07T13:45:18.117Z,1000.5
2017-08-07T13:46:20.333Z,1000.5
2017-08-07T13:47:22.210Z,1000.5
2017-08-07T13:48:24.240Z,1000.4
2017-08-07T13:49:25.724Z,1000.6
2017-08-07T13:50:27.728Z,1000.2
2017-08-07T13:51:29.481Z,1000.0
2017-08-07T13:52:30.910Z,1000.9
2017-08-07T13:53:32.611Z,1000.9
2017-08-07T13:54:34.807Z,1000.8
2017-08-07T13:55:36.419Z,1000.8
2017-08-07T13:56:38.123Z,1000.8
2017-08-07T13:57:40.189Z,1000.7
2017-08-07T13:58:41.765Z,1000.7
2017-08-07T13:59:43.559Z,1000.7
2017-08-07T14:00:45.127Z,1000.3
2017-08-07T14:01:46.744Z,1000.3
2017-08-07T14:02:48.914Z,1000.0
2017-08-07T14:03:50.801Z,1000.5
2017-08-07T14:04:54.048Z,1000.7
2017-08-07T14:05:56.142Z,1000.6
2017-08-07T14:06:57.998Z,1000.6
2017-08-07T14:07:59.897Z,1000.0
2017-08-07T14:09:01.662Z,1000.2
2017-08-07T14:10:03.399Z,999.9
2017-08-07T14:11:04.965Z,1000.1
2017-08-07T14:12:06.607Z,999.8
2017-08-07T14:13:10.367Z,1000.0
2017-08-07T14:14:13.280Z,1000.3
2017-08-07T14:15:16.102Z,1000.4
2017-08-07T14:16:18.161Z,1000.3
2017-08-07T14:17:20.850Z,1000.4
2017-08-07T14:18:22.487Z,1000.4
2017-08-07T14:19:24.017Z,1000.4
2017-08-07T14:20:25.582Z,1000.4
2017-08-07T14:21:27.274Z,1000.4
2017-08-07T14:22:28.956Z,1000.4
2017-08-07T14:23:30.769Z,1000.3
2017-08-07T14:24:32.580Z,1000.3
2017-08-07T14:25:34.235Z,1000.3
2017-08-07T14:26:35.931Z,1000.2
2017-08-07T14:27:40.142Z,1000.3
2017-08-07T14:28:43.766Z,1000.3
2017-08-07T14:29:45.586Z,1000.2
2017-08-07T14:30:47.204Z,1000.2
2017-08-07T14:31:48.824Z,1000.3
2017-08-07T14:32:50.376Z,1000.2
2017-08-07T14:33:51.904Z,1000.2
2017-08-07T14:34:53.446Z,1000.2
2017-08-07T14:35:55.023Z,1000.2
2017-08-07T14:36:56.636Z,1000.2
2017-08-07T14:37:58.497Z,1000.2
2017-08-07T14:39:00.012Z,1000.2
2017-08-07T14:40:01.650Z,1000.1
2017-08-07T14:41:03.434Z,1000.2
2017-08-07T14:42:04.981Z,1000.1
2017-08-07T14:43:06.617Z,1000.1
2017-08-07T14:44:08.253Z,1000.1
2017-08-07T14:45:09.845Z,1000.1
2017-08-07T14:46:11.487Z,1000.1
2017-08-07T14:47:13.044Z,1000.1
2017-08-07T14:48:14.586Z,1000.1
2017-08-07T14:49:16.194Z,1000.2
2017-08-07T14:50:17.779Z,1000.1
2017-08-07T14:51:19.478Z,1000.1
2017-08-07T14:52:21.001Z,1000.1
2017-08-07T14:53:22.600Z,999.8
2017-08-07T14:54:24.186Z,1000.0
2017-08-07T14:55:25.843Z,1000.0
2017-08-07T14:56:27.426Z,1000.0
2017-08-07T14:57:29.259Z,1000.0
2017-08-07T14:58:30.994Z,1000.0
2017-08-07T14:59:32.688Z,999.8
2017-08-07T15:00:34.259Z,1000.0
2017-08-07T15:01:35.971Z,1000.0
2017-08-07T15:02:37.802Z,1000.0
2017-08-07T15:03:39.814Z,1000.0
2017-08-07T15:04:41.763Z,999.8
2017-08-07T15:05:43.299Z,999.9
2017-08-07T15:06:44.987Z,999.9
2017-08-07T15:07:47.118Z,999.9
2017-08-07T15:08:48.986Z,999.9
2017-08-07T15:09:51.541Z,999.9
2017-08-07T15:10:53.543Z,999.8
2017-08-07T15:11:55.361Z,999.8
2017-08-07T15:12:57.905Z,999.9
2017-08-07T15:13:59.466Z,999.8
2017-08-07T15:15:02.501Z,999.8
2017-08-07T15:16:04.343Z,999.8
2017-08-07T15:17:06.152Z,999.8
2017-08-07T15:18:07.736Z,999.8
2017-08-07T15:19:09.576Z,999.8
2017-08-07T15:20:11.221Z,999.9
2017-08-07T15:21:13.095Z,999.5
2017-08-07T15:22:14.662Z,999.5
2017-08-07T15:23:16.156Z,999.8
2017-08-07T15:24:17.694Z,999.9
2017-08-07T15:25:19.230Z,999.9
2017-08-07T15:26:20.795Z,999.9
2017-08-07T15:27:22.337Z,999.8
2017-08-07T15:28:24.388Z,999.8
2017-08-07T15:29:26.239Z,999.8
2017-08-07T15:30:27.792Z,999.8
2017-08-07T15:31:29.366Z,999.7
2017-08-07T15:32:30.893Z,999.7
2017-08-07T15:33:32.534Z,999.7
2017-08-07T15:34:34.085Z,999.7
2017-08-07T15:35:35.734Z,999.7
2017-08-07T15:36:37.294Z,999.7
2017-08-07T15:37:39.119Z,999.4
2017-08-07T15:38:41.393Z,999.6
2017-08-07T15:39:43.072Z,999.7
2017-08-07T15:40:44.713Z,999.7
2017-08-07T15:41:46.455Z,999.6
2017-08-07T15:42:48.158Z,999.7
2017-08-07T15:43:50.171Z,999.6
2017-08-07T15:44:51.849Z,999.6
2017-08-07T15:45:53.423Z,999.6
2017-08-07T15:46:55.006Z,999.5
2017-08-07T15:47:56.585Z,999.5
2017-08-07T15:48:58.287Z,999.5
2017-08-07T15:49:59.944Z,999.5
2017-08-07T15:51:01.701Z,999.5
2017-08-07T15:52:03.313Z,999.5
2017-08-07T15:53:04.954Z,999.5
2017-08-07T15:54:06.602Z,999.5